LFHP METAR and TAF | Updated Today

LFHP METAR

Le Puy-Loudes Airport

Observation time: 1:39 hr. ago

LFHP 051900Z AUTO 35009KT 9999 FEW019 OVC048 03/00 Q1031

Need help? Read our tutorial on how to read METARs or read the parsed version below.

Le Puy-Loudes Airport (LFHP) METAR

  • Weather conditions on Sun, 05 Feb 2023 19:00:00 +0000 (1:39 hr. ago):
  • Present conditions: Dry
  • Clouds: A few at 579 meters; overcast sky at 1463 meters
  • Visibility: Greater than 10 km
  • Wind: 350 degrees at 9 knots
  • Temperature: 3 celsius
  • Dew point: 0 celsius
  • Pressure: 1031 millibars
  • Remarks: None


Useful to know...